Time;durP1;ratioP1;P1;durP2;ratioP2;P2;SDS_P1;SDS_P2;PMS_P1;PMS_P2;Temp;Humidity;BMP_temperature;BMP_pressure;BME280_temperature;BME280_humidity;BME280_pressure;Samples;Min_cycle;Max_cycle;Signal;HPM_P1;HPM_P2
2023/12/04 00:01:46;;;;;;;19.40;12.40;;;3.10;99.20;;;;;;5056697;28;20456;-62
2023/12/04 00:04:13;;;;;;;20.50;12.13;;;3.00;99.20;;;;;;5056987;28;20469;-62
2023/12/04 00:06:39;;;;;;;20.27;12.37;;;3.00;99.00;;;;;;5056657;28;20453;-62
2023/12/04 00:09:06;;;;;;;20.63;13.47;;;3.00;99.00;;;;;;5056723;28;20453;-62
2023/12/04 00:11:34;;;;;;;20.73;13.50;;;3.00;99.10;;;;;;5056639;28;20442;-62
2023/12/04 00:14:01;;;;;;;19.73;14.60;;;3.10;99.10;;;;;;5056222;28;20867;-62
2023/12/04 00:16:27;;;;;;;38.30;25.10;;;3.10;99.10;;;;;;5056532;28;20508;-62
2023/12/04 00:18:54;;;;;;;27.67;17.87;;;3.10;98.80;;;;;;5056785;28;20445;-62
2023/12/04 00:21:21;;;;;;;23.30;15.07;;;3.10;98.70;;;;;;5056220;28;20469;-62
2023/12/04 00:23:48;;;;;;;21.53;15.60;;;3.00;98.40;;;;;;5056366;28;20448;-62
2023/12/04 00:26:16;;;;;;;19.23;13.73;;;3.10;98.60;;;;;;5056203;28;20797;-63
2023/12/04 00:28:44;;;;;;;20.30;13.27;;;3.10;98.30;;;;;;5056369;28;20452;-62
2023/12/04 00:31:11;;;;;;;16.37;12.50;;;3.10;98.30;;;;;;5056200;28;20465;-62
2023/12/04 00:33:38;;;;;;;16.50;11.33;;;3.10;98.40;;;;;;5056244;28;20588;-62
2023/12/04 00:36:05;;;;;;;17.50;12.63;;;3.10;98.20;;;;;;5056127;28;20437;-62
2023/12/04 00:38:32;;;;;;;18.07;12.63;;;3.10;98.30;;;;;;5056203;28;20444;-62
2023/12/04 00:40:59;;;;;;;21.77;13.07;;;3.00;98.40;;;;;;5056121;28;20457;-62
2023/12/04 00:43:25;;;;;;;17.17;11.13;;;3.00;98.40;;;;;;5055924;28;20449;-62
2023/12/04 00:45:53;;;;;;;15.93;10.47;;;3.00;98.40;;;;;;5056015;28;20445;-62
2023/12/04 00:48:20;;;;;;;15.17;11.47;;;3.00;98.50;;;;;;5055868;28;20442;-62
2023/12/04 00:50:47;;;;;;;19.97;12.67;;;3.10;98.50;;;;;;5055781;28;20465;-62
2023/12/04 00:53:13;;;;;;;17.70;10.43;;;3.00;98.30;;;;;;5055808;28;20815;-62
2023/12/04 00:55:40;;;;;;;15.80;10.83;;;3.00;98.30;;;;;;5054880;28;20489;-62
2023/12/04 00:58:07;;;;;;;16.10;11.47;;;3.00;98.50;;;;;;5055792;28;20450;-62
2023/12/04 01:00:33;;;;;;;18.57;12.63;;;3.00;98.50;;;;;;5055258;28;20461;-62
2023/12/04 01:03:01;;;;;;;16.50;11.23;;;3.10;98.20;;;;;;5058071;28;20442;-62
2023/12/04 01:05:28;;;;;;;17.33;12.17;;;3.10;98.20;;;;;;5059217;28;20811;-62
2023/12/04 01:07:55;;;;;;;16.53;11.13;;;3.10;98.30;;;;;;5057109;28;20446;-62
2023/12/04 01:10:22;;;;;;;16.00;12.33;;;3.10;98.40;;;;;;5056657;28;20469;-62
2023/12/04 01:12:49;;;;;;;15.20;11.07;;;3.10;98.50;;;;;;5057215;28;20802;-62
2023/12/04 01:15:16;;;;;;;18.60;10.87;;;3.10;98.60;;;;;;5056103;28;20481;-62
2023/12/04 01:17:42;;;;;;;14.77;11.27;;;3.10;99.10;;;;;;5055397;28;20962;-62
2023/12/04 01:20:11;;;;;;;16.80;11.07;;;3.00;98.90;;;;;;5055633;28;20971;-62
2023/12/04 01:22:38;;;;;;;15.47;11.50;;;3.00;99.10;;;;;;5055442;28;20449;-62
2023/12/04 01:25:05;;;;;;;17.17;11.93;;;3.00;99.20;;;;;;5056109;28;20441;-62
2023/12/04 01:27:35;;;;;;;19.83;11.97;;;3.00;99.30;;;;;;5055936;28;20822;-62
2023/12/04 01:30:01;;;;;;;15.73;10.70;;;3.00;99.40;;;;;;5055218;28;20469;-62
2023/12/04 01:32:28;;;;;;;16.47;12.10;;;3.00;99.40;;;;;;5055266;28;20445;-62
2023/12/04 01:34:55;;;;;;;13.27;10.50;;;3.10;99.40;;;;;;5055250;28;20488;-62
2023/12/04 01:37:23;;;;;;;15.33;10.90;;;3.10;99.30;;;;;;5055379;28;20533;-62
2023/12/04 01:39:49;;;;;;;14.10;11.27;;;3.10;99.30;;;;;;5055270;28;20465;-62
2023/12/04 01:42:16;;;;;;;15.53;10.97;;;3.10;99.20;;;;;;5055165;28;20457;-62
2023/12/04 01:44:43;;;;;;;16.13;10.90;;;3.10;99.20;;;;;;5055442;28;20441;-62
2023/12/04 01:47:10;;;;;;;17.50;11.47;;;3.00;99.00;;;;;;5054951;28;20442;-62
2023/12/04 01:49:37;;;;;;;14.10;10.33;;;3.00;99.20;;;;;;5055730;28;20461;-62
2023/12/04 01:52:05;;;;;;;13.87;10.60;;;3.00;99.10;;;;;;5054854;28;20457;-62
2023/12/04 01:54:33;;;;;;;18.30;11.70;;;3.00;99.10;;;;;;5054754;28;20478;-62
2023/12/04 01:57:02;;;;;;;14.00;10.23;;;3.00;99.10;;;;;;5054623;28;20442;-62
2023/12/04 01:59:28;;;;;;;15.40;10.80;;;3.00;99.20;;;;;;5054640;28;20464;-62
2023/12/04 02:01:55;;;;;;;13.00;9.80;;;3.00;99.20;;;;;;5054725;28;20442;-62
2023/12/04 02:04:22;;;;;;;15.63;10.40;;;3.00;99.10;;;;;;5054657;28;20483;-62
2023/12/04 02:06:49;;;;;;;14.73;10.80;;;3.00;99.00;;;;;;5053465;28;20445;-62
2023/12/04 02:09:16;;;;;;;17.43;12.03;;;3.00;99.00;;;;;;5054380;28;20441;-62
2023/12/04 02:11:44;;;;;;;17.20;11.20;;;3.00;99.10;;;;;;5054499;28;20445;-62
2023/12/04 02:14:10;;;;;;;17.50;11.33;;;3.00;99.00;;;;;;5054364;28;20485;-62
2023/12/04 02:16:40;;;;;;;13.17;9.83;;;3.00;99.00;;;;;;5056045;28;20453;-62
2023/12/04 02:19:08;;;;;;;14.87;10.53;;;3.00;98.90;;;;;;5054295;28;20468;-62
2023/12/04 02:21:35;;;;;;;17.87;12.00;;;3.00;99.00;;;;;;5054150;28;20453;-62
2023/12/04 02:24:03;;;;;;;14.60;10.93;;;2.90;99.00;;;;;;5053939;28;20808;-62
2023/12/04 02:26:40;;;;;;;14.20;10.33;;;2.90;99.10;;;;;;5054194;28;20453;-62
2023/12/04 02:29:12;;;;;;;15.20;10.60;;;3.00;99.10;;;;;;5053890;28;20900;-62
2023/12/04 02:31:41;;;;;;;14.63;10.43;;;2.90;99.10;;;;;;5054510;28;20426;-62
2023/12/04 02:34:09;;;;;;;15.67;10.03;;;2.90;99.00;;;;;;5053438;28;20970;-62
2023/12/04 02:36:37;;;;;;;13.70;10.43;;;2.90;99.00;;;;;;5053604;28;20457;-62
2023/12/04 02:39:06;;;;;;;13.50;9.40;;;2.90;98.90;;;;;;5053698;28;20446;-62
2023/12/04 02:41:32;;;;;;;15.10;10.67;;;2.90;98.90;;;;;;5053586;28;20974;-62
2023/12/04 02:43:59;;;;;;;16.13;11.07;;;3.00;98.90;;;;;;5053818;28;20819;-62
2023/12/04 02:46:26;;;;;;;13.87;9.90;;;3.00;98.70;;;;;;5053874;28;20857;-62
2023/12/04 02:48:52;;;;;;;14.80;10.37;;;3.00;98.50;;;;;;5053846;28;20453;-62
2023/12/04 02:51:19;;;;;;;13.40;9.50;;;3.00;98.50;;;;;;5053453;28;21007;-62
2023/12/04 02:53:46;;;;;;;14.80;10.67;;;3.00;98.50;;;;;;5053418;28;20797;-62
2023/12/04 02:56:14;;;;;;;12.77;9.07;;;3.10;98.40;;;;;;5053444;28;20485;-62
2023/12/04 02:58:40;;;;;;;14.63;10.60;;;3.00;97.90;;;;;;5053522;28;20444;-62
2023/12/04 03:01:07;;;;;;;13.97;9.83;;;3.10;97.90;;;;;;5053320;28;20492;-62
2023/12/04 03:03:34;;;;;;;15.03;10.63;;;3.00;97.80;;;;;;5053218;28;20441;-62
2023/12/04 03:06:01;;;;;;;14.20;9.70;;;3.00;97.80;;;;;;5053339;28;20438;-62
2023/12/04 03:08:27;;;;;;;14.30;9.60;;;3.00;97.90;;;;;;5053498;28;20494;-62
2023/12/04 03:10:54;;;;;;;15.40;9.37;;;3.00;97.50;;;;;;5053529;28;20472;-62
2023/12/04 03:13:22;;;;;;;14.53;10.50;;;3.00;97.30;;;;;;5052976;28;20449;-62
2023/12/04 03:15:49;;;;;;;15.07;10.20;;;3.00;97.20;;;;;;5053348;28;20850;-62
2023/12/04 03:18:16;;;;;;;19.00;9.47;;;3.00;97.10;;;;;;5052853;28;20445;-62
2023/12/04 03:20:42;;;;;;;18.50;10.80;;;3.00;97.20;;;;;;5053153;28;20473;-62
2023/12/04 03:23:09;;;;;;;14.93;9.97;;;3.00;97.00;;;;;;5053243;28;20441;-62
2023/12/04 03:25:37;;;;;;;14.83;11.17;;;3.00;96.80;;;;;;5053125;28;20438;-62
2023/12/04 03:28:04;;;;;;;13.33;9.90;;;2.90;97.00;;;;;;5052904;28;20540;-62
2023/12/04 03:30:32;;;;;;;14.23;9.60;;;2.90;97.10;;;;;;5053397;28;20462;-62
2023/12/04 03:32:58;;;;;;;15.33;9.77;;;2.90;96.50;;;;;;5053197;28;20445;-62
2023/12/04 03:35:25;;;;;;;12.67;9.50;;;2.80;96.20;;;;;;5052932;28;20488;-62
2023/12/04 03:37:52;;;;;;;11.50;8.80;;;2.90;96.50;;;;;;5053537;28;20541;-62
2023/12/04 03:40:19;;;;;;;13.90;9.77;;;2.80;96.60;;;;;;5052929;28;20453;-62
2023/12/04 03:42:45;;;;;;;11.90;8.73;;;2.80;96.30;;;;;;5053885;28;20789;-61
2023/12/04 03:45:12;;;;;;;15.33;9.87;;;2.80;96.00;;;;;;5053022;28;20452;-61
2023/12/04 03:47:40;;;;;;;12.10;9.27;;;2.70;96.10;;;;;;5053024;28;20449;-61
2023/12/04 03:50:07;;;;;;;12.57;9.47;;;2.70;96.00;;;;;;5052884;28;20468;-61
2023/12/04 03:52:34;;;;;;;15.70;10.50;;;2.70;96.30;;;;;;5052977;28;20456;-61
2023/12/04 03:55:01;;;;;;;12.70;8.87;;;2.80;96.20;;;;;;5052669;28;20488;-62
2023/12/04 03:57:27;;;;;;;13.30;9.50;;;2.80;96.20;;;;;;5052909;28;20445;-62
2023/12/04 03:59:54;;;;;;;12.50;9.00;;;2.80;96.50;;;;;;5052744;28;20465;-62
2023/12/04 04:02:21;;;;;;;14.30;9.83;;;2.80;96.20;;;;;;5052801;28;20457;-62
2023/12/04 04:04:49;;;;;;;14.77;9.53;;;2.80;96.50;;;;;;5052707;28;20454;-62
2023/12/04 04:07:17;;;;;;;13.80;9.53;;;2.80;96.50;;;;;;5052914;28;20811;-62
2023/12/04 04:09:44;;;;;;;13.93;10.00;;;2.90;96.40;;;;;;5054929;28;20462;-62
2023/12/04 04:12:11;;;;;;;13.97;10.03;;;2.90;96.50;;;;;;5055887;28;20955;-62
2023/12/04 04:14:38;;;;;;;12.30;9.17;;;2.90;96.50;;;;;;5054399;28;20464;-62
2023/12/04 04:17:05;;;;;;;15.10;10.37;;;2.80;96.10;;;;;;5054213;28;20827;-62
2023/12/04 04:19:31;;;;;;;14.73;10.30;;;2.80;96.10;;;;;;5053625;28;20472;-62
2023/12/04 04:22:00;;;;;;;13.37;9.30;;;2.90;96.20;;;;;;5053030;28;20442;-61
2023/12/04 04:24:26;;;;;;;15.27;11.57;;;2.80;96.20;;;;;;5052834;28;20967;-61
2023/12/04 04:26:53;;;;;;;14.70;10.97;;;2.80;96.30;;;;;;5052934;28;20449;-62
2023/12/04 04:29:19;;;;;;;15.43;10.67;;;2.80;96.50;;;;;;5053109;28;20469;-61
2023/12/04 04:31:46;;;;;;;12.30;9.70;;;2.80;96.60;;;;;;5056593;28;20446;-62
2023/12/04 04:34:13;;;;;;;16.43;10.97;;;2.80;96.50;;;;;;5056884;28;20483;-62
2023/12/04 04:36:39;;;;;;;14.90;10.60;;;2.80;96.60;;;;;;5056549;28;20480;-62
2023/12/04 04:39:07;;;;;;;12.60;9.43;;;2.80;96.60;;;;;;5056313;28;20453;-62
2023/12/04 04:41:34;;;;;;;15.63;9.60;;;2.80;96.60;;;;;;5056337;28;20441;-62
2023/12/04 04:44:01;;;;;;;15.13;10.10;;;2.80;96.30;;;;;;5056311;28;20442;-62
2023/12/04 04:46:28;;;;;;;13.90;9.70;;;2.80;96.30;;;;;;5056142;28;20445;-62
2023/12/04 04:48:55;;;;;;;13.67;9.80;;;2.70;96.50;;;;;;5056144;28;20504;-62
2023/12/04 04:51:22;;;;;;;14.50;9.80;;;2.70;96.80;;;;;;5056134;28;20466;-62
2023/12/04 04:53:49;;;;;;;12.17;9.60;;;2.80;96.90;;;;;;5055864;28;20448;-62
2023/12/04 04:56:19;;;;;;;14.53;9.63;;;2.80;96.80;;;;;;5055804;28;20520;-62
2023/12/04 04:58:45;;;;;;;15.90;9.77;;;2.70;96.90;;;;;;5055796;28;20935;-62
2023/12/04 05:01:12;;;;;;;14.40;10.60;;;2.70;96.50;;;;;;5055506;28;21025;-62
2023/12/04 05:03:39;;;;;;;18.03;10.27;;;2.80;96.60;;;;;;5055492;28;20446;-62
2023/12/04 05:06:06;;;;;;;15.13;12.07;;;2.70;96.60;;;;;;5055513;28;20442;-62
2023/12/04 05:08:33;;;;;;;12.63;10.37;;;2.80;96.60;;;;;;5055640;28;20441;-62
2023/12/04 05:10:59;;;;;;;14.60;10.83;;;2.80;96.30;;;;;;5055499;28;20489;-61
2023/12/04 05:13:27;;;;;;;12.83;10.07;;;2.80;96.00;;;;;;5055521;28;20452;-61
2023/12/04 05:15:54;;;;;;;13.60;10.40;;;2.80;96.20;;;;;;5055521;28;20497;-62
2023/12/04 05:18:21;;;;;;;13.00;9.70;;;2.70;96.00;;;;;;5055609;28;20434;-62
2023/12/04 05:20:47;;;;;;;14.30;10.00;;;2.70;96.00;;;;;;5055593;28;20466;-62
2023/12/04 05:23:14;;;;;;;15.17;9.63;;;2.70;96.40;;;;;;5055348;28;20449;-62
2023/12/04 05:25:41;;;;;;;14.40;11.07;;;2.70;96.20;;;;;;5055198;28;20811;-62
2023/12/04 05:28:08;;;;;;;14.10;9.90;;;2.70;96.40;;;;;;5055460;28;20442;-62
2023/12/04 05:30:36;;;;;;;14.73;10.10;;;2.70;96.50;;;;;;5055273;28;20548;-62
2023/12/04 05:33:03;;;;;;;12.67;10.27;;;2.60;96.60;;;;;;5054839;28;20863;-62
2023/12/04 05:35:33;;;;;;;13.37;10.53;;;2.60;96.90;;;;;;5054748;28;21006;-61
2023/12/04 05:38:00;;;;;;;16.03;11.37;;;2.60;97.10;;;;;;5055163;28;20515;-62
2023/12/04 05:40:27;;;;;;;15.23;10.80;;;2.60;96.70;;;;;;5054809;28;20468;-61
2023/12/04 05:42:53;;;;;;;13.87;10.57;;;2.50;96.80;;;;;;5055011;28;20442;-61
2023/12/04 05:45:20;;;;;;;14.00;10.40;;;2.50;97.10;;;;;;5054836;28;20960;-61
2023/12/04 05:47:48;;;;;;;17.80;11.77;;;2.50;97.30;;;;;;5054664;28;20814;-61
2023/12/04 05:50:15;;;;;;;13.47;10.30;;;2.50;97.10;;;;;;5054887;28;20990;-61
2023/12/04 05:52:42;;;;;;;14.27;10.10;;;2.50;96.90;;;;;;5054832;28;21013;-61
2023/12/04 05:55:09;;;;;;;18.70;11.63;;;2.50;96.90;;;;;;5054612;28;20449;-61
2023/12/04 05:57:36;;;;;;;14.07;10.90;;;2.50;96.90;;;;;;5054469;28;20936;-61
2023/12/04 06:00:04;;;;;;;15.30;11.03;;;2.50;97.20;;;;;;5054322;28;21007;-61
2023/12/04 06:02:31;;;;;;;16.10;10.40;;;2.40;96.40;;;;;;5054947;28;20495;-62
2023/12/04 06:04:59;;;;;;;15.50;10.53;;;2.40;96.20;;;;;;5054910;28;20438;-62
2023/12/04 06:07:25;;;;;;;15.40;11.63;;;2.40;96.80;;;;;;5055124;28;20437;-62
2023/12/04 06:09:52;;;;;;;16.23;11.17;;;2.40;97.30;;;;;;5054981;28;20469;-62
2023/12/04 06:12:19;;;;;;;12.80;9.57;;;2.40;97.00;;;;;;5055024;28;20452;-62
2023/12/04 06:14:45;;;;;;;13.87;10.60;;;2.30;97.50;;;;;;5054653;28;20465;-62
2023/12/04 06:17:12;;;;;;;16.40;11.43;;;2.30;97.80;;;;;;5053888;28;21031;-62
2023/12/04 06:19:39;;;;;;;14.13;10.10;;;2.40;98.10;;;;;;5054526;28;20507;-62
2023/12/04 06:22:07;;;;;;;18.83;11.90;;;2.40;97.80;;;;;;5054122;28;20442;-62
2023/12/04 06:24:34;;;;;;;18.67;11.93;;;2.50;97.80;;;;;;5054273;28;20484;-62
2023/12/04 06:27:01;;;;;;;15.20;11.60;;;2.50;97.70;;;;;;5054032;28;20499;-62
2023/12/04 06:29:29;;;;;;;15.93;11.37;;;2.60;97.80;;;;;;5053997;28;20461;-61
2023/12/04 06:31:56;;;;;;;13.67;10.67;;;2.60;97.30;;;;;;5053736;28;20445;-61
2023/12/04 06:34:24;;;;;;;19.10;11.50;;;2.60;97.70;;;;;;5053798;28;20442;-62
2023/12/04 06:36:51;;;;;;;14.80;11.27;;;2.60;97.80;;;;;;5053881;28;20488;-62
2023/12/04 06:39:19;;;;;;;17.40;12.27;;;2.50;98.00;;;;;;5053834;28;20851;-62
2023/12/04 06:41:48;;;;;;;15.70;11.77;;;2.50;98.20;;;;;;5053859;28;20445;-62
2023/12/04 06:44:15;;;;;;;14.70;11.47;;;2.50;98.30;;;;;;5053907;28;20537;-62
2023/12/04 06:46:45;;;;;;;16.63;12.27;;;2.50;98.50;;;;;;5054146;28;20561;-62
2023/12/04 06:49:14;;;;;;;17.53;12.20;;;2.50;98.20;;;;;;5053849;28;20464;-62
2023/12/04 06:51:40;;;;;;;16.20;11.83;;;2.50;98.30;;;;;;5053666;28;20449;-62
2023/12/04 06:54:07;;;;;;;18.40;11.90;;;2.50;98.40;;;;;;5053137;28;20454;-61
2023/12/04 06:56:35;;;;;;;18.03;11.60;;;2.60;98.50;;;;;;5053661;28;20477;-61
2023/12/04 06:59:02;;;;;;;16.37;12.10;;;2.50;98.30;;;;;;5053575;28;20446;-61
2023/12/04 07:01:28;;;;;;;16.70;12.00;;;2.50;98.40;;;;;;5053474;28;20452;-62
2023/12/04 07:03:55;;;;;;;15.87;11.93;;;2.50;98.00;;;;;;5053451;28;20840;-62
2023/12/04 07:06:22;;;;;;;18.00;11.20;;;2.50;98.20;;;;;;5053441;28;20863;-62
2023/12/04 07:08:48;;;;;;;20.53;11.70;;;2.50;97.90;;;;;;5053491;28;20453;-62
2023/12/04 07:11:16;;;;;;;15.67;11.60;;;2.50;98.10;;;;;;5053414;28;20487;-62
2023/12/04 07:13:44;;;;;;;15.10;11.90;;;2.50;98.10;;;;;;5053570;28;20468;-62
2023/12/04 07:16:10;;;;;;;14.80;11.27;;;2.50;98.10;;;;;;5057194;28;20485;-62
2023/12/04 07:18:37;;;;;;;18.00;12.23;;;2.60;98.10;;;;;;5056009;28;20449;-62
2023/12/04 07:21:04;;;;;;;15.80;12.37;;;2.60;98.00;;;;;;5054888;28;20461;-61
2023/12/04 07:23:31;;;;;;;17.83;13.77;;;2.60;97.40;;;;;;5054198;28;20444;-62
2023/12/04 07:25:58;;;;;;;17.07;11.87;;;2.70;97.40;;;;;;5054125;28;20449;-61
2023/12/04 07:28:25;;;;;;;17.50;12.60;;;2.70;97.60;;;;;;5054051;28;20468;-61
2023/12/04 07:30:55;;;;;;;18.30;12.70;;;2.60;97.60;;;;;;5054403;28;20470;-61
2023/12/04 07:33:22;;;;;;;16.50;12.60;;;2.60;97.70;;;;;;5053715;28;20429;-62
2023/12/04 07:35:49;;;;;;;18.30;12.60;;;2.60;97.50;;;;;;5053605;28;20865;-62
2023/12/04 07:38:16;;;;;;;18.20;12.70;;;2.60;97.60;;;;;;5053596;28;20524;-61
2023/12/04 07:40:42;;;;;;;20.90;13.93;;;2.70;97.60;;;;;;5053363;28;20465;-62
2023/12/04 07:43:09;;;;;;;17.37;11.90;;;2.70;97.60;;;;;;5054408;28;20776;-62
2023/12/04 07:45:36;;;;;;;16.60;12.63;;;2.70;97.30;;;;;;5053821;28;20445;-62
2023/12/04 07:48:05;;;;;;;18.80;12.03;;;2.70;97.40;;;;;;5053572;28;20489;-63
2023/12/04 07:50:32;;;;;;;18.97;12.40;;;2.70;97.20;;;;;;5052885;28;20457;-62
2023/12/04 07:52:59;;;;;;;17.23;11.53;;;2.70;96.80;;;;;;5053222;28;20442;-61
2023/12/04 07:55:25;;;;;;;16.23;11.87;;;2.70;96.60;;;;;;5052638;28;20820;-61
2023/12/04 07:57:52;;;;;;;16.67;11.73;;;2.70;96.30;;;;;;5052765;28;21008;-62
2023/12/04 08:00:22;;;;;;;14.83;10.53;;;2.70;96.70;;;;;;5052977;28;20473;-62
2023/12/04 08:02:49;;;;;;;15.13;11.67;;;2.70;96.80;;;;;;5053124;28;20542;-62
2023/12/04 08:05:17;;;;;;;14.97;10.80;;;2.70;96.20;;;;;;5054913;28;20441;-62
2023/12/04 08:07:44;;;;;;;16.93;11.77;;;2.70;96.40;;;;;;5056905;28;20536;-62
2023/12/04 08:10:11;;;;;;;15.30;11.83;;;2.60;96.40;;;;;;5056730;28;20465;-62
2023/12/04 08:12:38;;;;;;;15.47;11.33;;;2.60;96.60;;;;;;5056829;28;20449;-61
2023/12/04 08:15:06;;;;;;;14.70;11.00;;;2.60;96.70;;;;;;5056584;28;20445;-62
2023/12/04 08:17:33;;;;;;;14.43;11.20;;;2.70;96.60;;;;;;5056706;28;20485;-62
2023/12/04 08:19:59;;;;;;;15.27;11.87;;;2.70;96.30;;;;;;5056584;28;20457;-62
2023/12/04 08:22:27;;;;;;;14.50;11.00;;;2.70;96.10;;;;;;5056648;28;20437;-61
2023/12/04 08:24:54;;;;;;;15.73;12.23;;;2.70;96.40;;;;;;5056802;28;20445;-62
2023/12/04 08:27:21;;;;;;;15.83;12.23;;;2.80;96.10;;;;;;5056587;28;20831;-62
2023/12/04 08:29:47;;;;;;;15.47;12.10;;;2.80;96.20;;;;;;5056450;28;20469;-62
2023/12/04 08:32:14;;;;;;;16.03;11.77;;;2.80;96.40;;;;;;5056378;28;20448;-62
2023/12/04 08:34:41;;;;;;;15.43;11.50;;;2.80;96.40;;;;;;5056036;28;20931;-62
2023/12/04 08:37:07;;;;;;;17.43;12.47;;;2.80;96.50;;;;;;5056231;28;20492;-62
2023/12/04 08:39:35;;;;;;;18.57;13.00;;;2.80;96.40;;;;;;5056224;28;20465;-61
2023/12/04 08:42:02;;;;;;;16.53;11.93;;;2.90;96.20;;;;;;5055886;28;20932;-62
2023/12/04 08:44:29;;;;;;;17.73;12.27;;;2.90;96.60;;;;;;5056175;28;20442;-62
2023/12/04 08:46:57;;;;;;;17.60;12.40;;;2.90;96.60;;;;;;5056161;28;20452;-62
2023/12/04 08:49:24;;;;;;;15.30;11.83;;;2.90;96.30;;;;;;5055537;28;20473;-62
2023/12/04 08:51:52;;;;;;;19.20;13.00;;;3.00;96.50;;;;;;5056054;28;20456;-62
2023/12/04 08:54:19;;;;;;;16.37;12.17;;;3.00;96.20;;;;;;5055926;28;20450;-62
2023/12/04 08:56:47;;;;;;;15.50;12.40;;;3.00;95.90;;;;;;5055609;28;20539;-61
2023/12/04 08:59:13;;;;;;;14.30;11.23;;;3.00;95.90;;;;;;5055626;28;20458;-61
2023/12/04 09:01:40;;;;;;;14.37;11.40;;;2.90;96.00;;;;;;5055415;28;20955;-62
2023/12/04 09:04:09;;;;;;;18.03;12.07;;;2.90;96.20;;;;;;5055792;28;20452;-61
2023/12/04 09:06:35;;;;;;;17.40;11.07;;;3.00;96.00;;;;;;5055653;28;20442;-62
2023/12/04 09:09:02;;;;;;;20.53;14.53;;;3.00;95.70;;;;;;5055531;28;20457;-62
2023/12/04 09:11:29;;;;;;;17.70;12.70;;;3.00;95.30;;;;;;5055560;28;20452;-62
2023/12/04 09:13:57;;;;;;;14.87;11.83;;;3.00;95.40;;;;;;5055243;28;20461;-62
2023/12/04 09:16:24;;;;;;;18.00;13.20;;;3.00;95.30;;;;;;5054748;28;20477;-62
2023/12/04 09:18:51;;;;;;;19.37;13.37;;;3.00;95.00;;;;;;5055323;28;20442;-61
2023/12/04 09:21:18;;;;;;;17.70;12.60;;;2.90;95.50;;;;;;5055339;28;20897;-62
2023/12/04 09:23:49;;;;;;;13.50;10.47;;;3.00;95.90;;;;;;5055443;28;20454;-62
2023/12/04 09:26:16;;;;;;;15.73;12.07;;;3.00;95.70;;;;;;5055179;28;20437;-61
2023/12/04 09:28:43;;;;;;;17.73;11.70;;;2.90;95.10;;;;;;5055207;28;20449;-62
2023/12/04 09:31:11;;;;;;;15.03;10.80;;;3.00;95.40;;;;;;5054791;28;20472;-62
2023/12/04 09:33:37;;;;;;;20.70;11.40;;;2.90;95.00;;;;;;5054860;28;20952;-62
2023/12/04 09:36:05;;;;;;;16.50;12.00;;;3.00;95.30;;;;;;5055050;28;20446;-62
2023/12/04 09:38:31;;;;;;;13.87;11.57;;;3.10;95.40;;;;;;5054983;28;20485;-62
2023/12/04 09:41:01;;;;;;;15.43;12.53;;;3.00;95.60;;;;;;5055188;28;20461;-62
2023/12/04 09:43:29;;;;;;;16.67;12.47;;;2.90;95.70;;;;;;5054973;28;20823;-62
2023/12/04 09:45:55;;;;;;;16.63;11.50;;;2.90;95.60;;;;;;5054976;28;20499;-62
2023/12/04 09:48:25;;;;;;;18.27;12.30;;;2.90;95.80;;;;;;5054517;28;20962;-62
2023/12/04 09:50:52;;;;;;;16.20;11.10;;;3.00;96.00;;;;;;5055128;28;20465;-62
2023/12/04 09:53:19;;;;;;;13.23;10.50;;;3.00;95.80;;;;;;5054844;28;20437;-62
2023/12/04 09:55:49;;;;;;;16.83;11.60;;;3.00;95.50;;;;;;5054695;28;20457;-62
2023/12/04 09:58:16;;;;;;;14.30;11.20;;;3.00;95.10;;;;;;5054290;28;21002;-62
2023/12/04 10:00:44;;;;;;;16.60;10.73;;;3.00;94.60;;;;;;5054229;28;20472;-62
2023/12/04 10:03:12;;;;;;;15.33;11.03;;;3.00;94.90;;;;;;5054520;28;20441;-62
2023/12/04 10:05:45;;;;;;;14.80;11.03;;;3.00;94.50;;;;;;5054518;28;20527;-62
2023/12/04 10:08:11;;;;;;;16.97;11.10;;;3.00;94.80;;;;;;5054228;28;20897;-62
2023/12/04 10:10:38;;;;;;;16.47;10.97;;;2.90;95.70;;;;;;5054003;28;20839;-62
2023/12/04 10:13:05;;;;;;;16.10;11.60;;;2.90;95.70;;;;;;5054384;28;20441;-62
2023/12/04 10:15:31;;;;;;;17.70;12.60;;;3.00;96.10;;;;;;5053985;28;20465;-62
2023/12/04 10:17:58;;;;;;;15.20;11.33;;;3.00;95.90;;;;;;5054287;28;20504;-62
2023/12/04 10:20:25;;;;;;;15.47;11.90;;;3.00;95.00;;;;;;5058132;28;20480;-61
2023/12/04 10:22:56;;;;;;;15.83;11.93;;;3.00;95.20;;;;;;5058025;28;21061;-61
2023/12/04 10:25:23;;;;;;;15.53;10.70;;;3.00;95.10;;;;;;5057606;28;20963;-61
2023/12/04 10:27:50;;;;;;;17.23;10.50;;;3.00;94.70;;;;;;5054284;28;20931;-62
2023/12/04 10:30:27;;;;;;;15.70;10.73;;;3.00;94.30;;;;;;5055215;28;20458;-62
2023/12/04 10:33:00;;;;;;;13.97;10.37;;;3.10;94.70;;;;;;5054748;28;20481;-62
2023/12/04 10:35:28;;;;;;;17.73;11.33;;;3.00;94.70;;;;;;5054200;28;20825;-62
2023/12/04 10:37:57;;;;;;;17.37;10.20;;;3.10;94.90;;;;;;5054479;28;20893;-62
2023/12/04 10:40:24;;;;;;;14.70;11.03;;;3.10;95.30;;;;;;5054460;28;20468;-61
2023/12/04 10:42:51;;;;;;;15.07;11.03;;;3.10;95.40;;;;;;5054133;28;20442;-62
2023/12/04 10:45:21;;;;;;;14.70;10.33;;;3.20;95.00;;;;;;5054100;28;20453;-62
2023/12/04 10:47:50;;;;;;;13.77;10.73;;;3.20;95.50;;;;;;5054391;28;20452;-63
2023/12/04 10:50:18;;;;;;;16.50;11.20;;;3.30;95.60;;;;;;5054068;28;20462;-62
2023/12/04 10:52:46;;;;;;;17.80;12.47;;;3.30;95.30;;;;;;5053901;28;20444;-62
2023/12/04 10:55:15;;;;;;;15.83;12.00;;;3.30;96.00;;;;;;5053534;28;20833;-62
2023/12/04 10:57:44;;;;;;;14.77;11.53;;;3.30;95.80;;;;;;5053301;28;20999;-62
2023/12/04 11:00:16;;;;;;;16.43;11.80;;;3.30;96.20;;;;;;5053778;28;20457;-62
2023/12/04 11:02:46;;;;;;;15.30;10.80;;;3.40;96.70;;;;;;5053769;28;20434;-62
2023/12/04 11:05:17;;;;;;;14.57;11.47;;;3.40;96.90;;;;;;5053655;28;20422;-62
2023/12/04 11:07:51;;;;;;;16.10;12.00;;;3.40;97.20;;;;;;5053525;28;20414;-62
2023/12/04 11:10:24;;;;;;;18.20;12.50;;;3.40;97.00;;;;;;5053583;28;20508;-62
2023/12/04 11:12:56;;;;;;;16.30;12.57;;;3.40;97.50;;;;;;5053525;28;20928;-62
2023/12/04 11:15:25;;;;;;;16.17;10.87;;;3.40;97.80;;;;;;5053693;28;20479;-62
2023/12/04 11:17:59;;;;;;;13.50;10.53;;;3.50;98.00;;;;;;5053487;28;20568;-62
2023/12/04 11:20:30;;;;;;;16.70;11.70;;;3.50;98.10;;;;;;5053081;28;20975;-62
2023/12/04 11:22:58;;;;;;;17.97;12.67;;;3.50;98.40;;;;;;5053266;28;20444;-62
2023/12/04 11:25:28;;;;;;;16.90;10.70;;;3.60;98.60;;;;;;5053446;28;20535;-62
2023/12/04 11:27:57;;;;;;;17.57;11.97;;;3.60;98.80;;;;;;5053386;28;20448;-62
2023/12/04 11:30:24;;;;;;;19.00;12.20;;;3.70;98.80;;;;;;5053464;28;20472;-62
2023/12/04 11:32:56;;;;;;;15.20;11.90;;;3.70;98.90;;;;;;5053481;28;20449;-62
2023/12/04 11:35:25;;;;;;;13.90;10.30;;;3.70;99.00;;;;;;5052930;28;20545;-62
2023/12/04 11:37:53;;;;;;;16.20;12.33;;;3.70;99.00;;;;;;5053228;28;20477;-62
2023/12/04 11:40:20;;;;;;;14.67;11.63;;;3.70;99.40;;;;;;5056629;28;20980;-63
2023/12/04 11:42:48;;;;;;;16.17;11.57;;;3.80;99.60;;;;;;5057496;28;20445;-63
2023/12/04 11:45:20;;;;;;;14.93;11.53;;;3.70;99.60;;;;;;5057082;28;20958;-63
2023/12/04 11:47:50;;;;;;;15.57;11.37;;;3.70;99.90;;;;;;5057149;28;20462;-62
2023/12/04 11:50:18;;;;;;;15.90;11.27;;;3.70;99.90;;;;;;5057011;28;20465;-63
2023/12/04 11:52:45;;;;;;;20.30;11.87;;;3.80;99.90;;;;;;5057039;28;20442;-63
2023/12/04 11:55:12;;;;;;;17.37;11.50;;;3.80;99.90;;;;;;5057275;28;20480;-64
2023/12/04 11:57:39;;;;;;;16.60;11.70;;;3.80;99.90;;;;;;5056808;28;20485;-64
2023/12/04 12:00:14;;;;;;;18.60;12.73;;;3.80;99.90;;;;;;5056785;28;20481;-64
2023/12/04 12:02:42;;;;;;;16.00;12.33;;;3.70;99.90;;;;;;5056934;28;20421;-64
2023/12/04 12:05:09;;;;;;;17.77;11.70;;;3.70;99.90;;;;;;5057004;28;20817;-64
2023/12/04 12:07:36;;;;;;;13.87;10.43;;;3.70;99.90;;;;;;5056753;28;20445;-64
2023/12/04 12:10:03;;;;;;;17.37;13.03;;;3.70;99.90;;;;;;5056768;28;20532;-64
2023/12/04 12:12:31;;;;;;;16.93;12.33;;;3.60;99.90;;;;;;5056664;28;20438;-64
2023/12/04 12:14:58;;;;;;;17.60;12.33;;;3.70;99.90;;;;;;5056377;28;20464;-64
2023/12/04 12:17:26;;;;;;;16.33;11.67;;;3.70;99.90;;;;;;5056372;28;20509;-64
2023/12/04 12:19:53;;;;;;;17.93;12.57;;;3.70;99.90;;;;;;5056831;28;20465;-64
2023/12/04 12:22:19;;;;;;;17.30;13.10;;;3.70;99.90;;;;;;5056195;28;20939;-64
2023/12/04 12:24:46;;;;;;;20.57;12.60;;;3.70;99.90;;;;;;5056132;28;20449;-64
2023/12/04 12:27:13;;;;;;;17.20;10.70;;;3.70;99.90;;;;;;5056518;28;20445;-64
2023/12/04 12:29:39;;;;;;;18.87;12.13;;;3.60;99.90;;;;;;5056562;28;20468;-64
2023/12/04 12:32:06;;;;;;;16.03;12.30;;;3.60;99.90;;;;;;5056362;28;20446;-64
2023/12/04 12:34:36;;;;;;;17.23;12.13;;;3.60;99.90;;;;;;5056095;28;20822;-63
2023/12/04 12:37:05;;;;;;;16.03;11.77;;;3.50;99.90;;;;;;5055908;28;21013;-64
2023/12/04 12:39:32;;;;;;;16.80;12.10;;;3.50;99.90;;;;;;5055952;28;20457;-63